地図

経路データ

SID SEASON NUMBER BASIN SUBBASIN NAME ISO_TIME NATURE LAT LON WMO_WIND WMO_PRES WMO_AGENCY TRACK_TYPE DIST2LAND LANDFALL IFLAG USA_AGENCY USA_ATCF_ID USA_LAT USA_LON USA_RECORD USA_STATUS USA_WIND USA_PRES USA_SSHS USA_R34_NE USA_R34_SE USA_R34_SW USA_R34_NW USA_R50_NE USA_R50_SE USA_R50_SW USA_R50_NW USA_R64_NE USA_R64_SE USA_R64_SW USA_R64_NW USA_POCI USA_ROCI USA_RMW USA_EYE TOKYO_LAT TOKYO_LON TOKYO_GRADE TOKYO_WIND TOKYO_PRES TOKYO_R50_DIR TOKYO_R50_LONG TOKYO_R50_SHORT TOKYO_R30_DIR TOKYO_R30_LONG TOKYO_R30_SHORT TOKYO_LAND CMA_LAT CMA_LON CMA_CAT CMA_WIND CMA_PRES HKO_LAT HKO_LON HKO_CAT HKO_WIND HKO_PRES NEWDELHI_LAT NEWDELHI_LON NEWDELHI_GRADE NEWDELHI_WIND NEWDELHI_PRES NEWDELHI_CI NEWDELHI_DP NEWDELHI_POCI REUNION_LAT REUNION_LON REUNION_TYPE REUNION_WIND REUNION_PRES REUNION_TNUM REUNION_CI REUNION_RMW REUNION_R34_NE REUNION_R34_SE REUNION_R34_SW REUNION_R34_NW REUNION_R50_NE REUNION_R50_SE REUNION_R50_SW REUNION_R50_NW REUNION_R64_NE REUNION_R64_SE REUNION_R64_SW REUNION_R64_NW BOM_LAT BOM_LON BOM_TYPE BOM_WIND BOM_PRES BOM_TNUM BOM_CI BOM_RMW BOM_R34_NE BOM_R34_SE BOM_R34_SW BOM_R34_NW BOM_R50_NE BOM_R50_SE BOM_R50_SW BOM_R50_NW BOM_R64_NE BOM_R64_SE BOM_R64_SW BOM_R64_NW BOM_ROCI BOM_POCI BOM_EYE BOM_POS_METHOD BOM_PRES_METHOD NADI_LAT NADI_LON NADI_CAT NADI_WIND NADI_PRES WELLINGTON_LAT WELLINGTON_LON WELLINGTON_WIND WELLINGTON_PRES DS824_LAT DS824_LON DS824_STAGE DS824_WIND DS824_PRES TD9636_LAT TD9636_LON TD9636_STAGE TD9636_WIND TD9636_PRES TD9635_LAT TD9635_LON TD9635_WIND TD9635_PRES TD9635_ROCI NEUMANN_LAT NEUMANN_LON NEUMANN_CLASS NEUMANN_WIND NEUMANN_PRES MLC_LAT MLC_LON MLC_CLASS MLC_WIND MLC_PRES USA_GUST BOM_GUST BOM_GUST_PER REUNION_GUST REUNION_GUST_PER USA_SEAHGT USA_SEARAD_NE USA_SEARAD_SE USA_SEARAD_SW USA_SEARAD_NW STORM_SPEED STORM_DIR
1893191N19127 1893 21 WP MM NOT_NAMED 1893-07-09 16:00:00 NR 18.6000 127.300 main 527 489 __________O___ -1 18.6000 127.300 7 18 321
1893191N19127 1893 21 WP MM NOT_NAMED 1893-07-09 18:00:00 NR 19.0705 126.902 main 490 448 __________P___ -1 19.0705 126.902 7 18 321
1893191N19127 1893 21 WP MM NOT_NAMED 1893-07-09 21:00:00 NR 19.7616 126.321 main 448 424 __________P___ -1 19.7616 126.321 7 17 322
1893191N19127 1893 21 WP MM NOT_NAMED 1893-07-10 00:00:00 NR 20.4167 125.786 main 429 422 __________P___ -1 20.4167 125.786 7 16 323
1893191N19127 1893 21 WP MM NOT_NAMED 1893-07-10 03:00:00 NR 21.0160 125.329 main 427 427 __________P___ -1 21.0160 125.329 7 14 325
1893191N19127 1893 21 WP MM NOT_NAMED 1893-07-10 04:00:00 NR 21.2000 125.200 main 436 411 __________O___ -1 21.2000 125.200 3 12 328
1893191N19127 1893 21 WP MM NOT_NAMED 1893-07-10 06:00:00 NR 21.5423 124.980 main 411 360 __________P___ -1 21.5423 124.980 3 11 332
1893191N19127 1893 21 WP MM NOT_NAMED 1893-07-10 09:00:00 NR 22.0059 124.734 main 360 337 __________P___ -1 22.0059 124.734 3 10 336
1893191N19127 1893 21 WP MM NOT_NAMED 1893-07-10 12:00:00 NR 22.4346 124.562 main 337 307 __________P___ -1 22.4346 124.562 3 9 342
1893191N19127 1893 21 WP MM NOT_NAMED 1893-07-10 15:00:00 NR 22.8563 124.437 main 307 304 __________P___ -1 22.8563 124.437 3 9 345
1893191N19127 1893 21 WP MM NOT_NAMED 1893-07-10 16:00:00 NR 23.0000 124.400 main 304 278 __________O___ -1 23.0000 124.400 4 10 346
1893191N19127 1893 21 WP MM NOT_NAMED 1893-07-10 18:00:00 NR 23.3161 124.307 main 278 245 __________P___ -1 23.3161 124.307 4 10 346
1893191N19127 1893 21 WP MM NOT_NAMED 1893-07-10 21:00:00 NR 23.7968 124.194 main 245 223 __________P___ -1 23.7968 124.194 4 10 349
1893191N19127 1893 21 WP MM NOT_NAMED 1893-07-11 00:00:00 NR 24.2769 124.103 main 223 204 __________P___ -1 24.2769 124.103 4 10 351
1893191N19127 1893 21 WP MM NOT_NAMED 1893-07-11 03:00:00 NR 24.7471 124.025 main 204 201 __________P___ -1 24.7471 124.025 4 10 351
1893191N19127 1893 21 WP MM NOT_NAMED 1893-07-11 04:00:00 NR 24.9000 124.000 main 201 192 __________O___ -1 24.9000 124.000 4 9 352
1893191N19127 1893 21 WP MM NOT_NAMED 1893-07-11 06:00:00 NR 25.1921 123.944 main 192 192 __________P___ -1 25.1921 123.944 4 9 351
1893191N19127 1893 21 WP MM NOT_NAMED 1893-07-11 09:00:00 NR 25.6176 123.867 main 202 196 __________P___ -1 25.6176 123.867 4 9 351
1893191N19127 1893 21 WP MM NOT_NAMED 1893-07-11 12:00:00 NR 26.0362 123.794 main 212 218 __________P___ -1 26.0362 123.794 4 9 351
1893191N19127 1893 21 WP MM NOT_NAMED 1893-07-11 15:00:00 NR 26.4574 123.724 main 238 238 __________P___ -1 26.4574 123.724 4 9 351
1893191N19127 1893 21 WP MM NOT_NAMED 1893-07-11 16:00:00 NR 26.6000 123.700 main 246 246 __________O___ -1 26.6000 123.700 4 9 352
1893191N19127 1893 21 WP MM NOT_NAMED 1893-07-11 18:00:00 NR 26.8898 123.652 main 259 226 __________P___ -1 26.8898 123.652 4 9 351
1893191N19127 1893 21 WP MM NOT_NAMED 1893-07-11 21:00:00 NR 27.3347 123.578 main 226 194 __________P___ -1 27.3347 123.578 4 9 352
1893191N19127 1893 21 WP MM NOT_NAMED 1893-07-12 00:00:00 NR 27.7882 123.503 main 194 175 __________P___ -1 27.7882 123.503 4 9 352
1893191N19127 1893 21 WP MM NOT_NAMED 1893-07-12 03:00:00 NR 28.2467 123.426 main 175 162 __________P___ -1 28.2467 123.426 4 9 352
1893191N19127 1893 21 WP MM NOT_NAMED 1893-07-12 04:00:00 NR 28.4000 123.400 main 162 __________O___ -1 28.4000 123.400 4 9 0

デジタル台風データ・検索

IBTrACS Databaseについて

本データベースは、米国NOAAが公開する1842年以降の世界の熱帯低気圧のベストトラックデータアーカイブInternational Best Track Archive for Climate Stewardship (IBTrACS)を、ウェブで閲覧しやすい形式に変換したものです。

最終更新日:2021-12-06